sensor_id;sensor_type;location;lat;lon;timestamp;pressure;altitude;pressure_sealevel;temperature;humidity
11314;BME280;5712;48.858;9.206;2023-04-21T00:01:27;97797.56;;;4.42;100.00
11314;BME280;5712;48.858;9.206;2023-04-21T00:03:54;97801.13;;;4.41;100.00
11314;BME280;5712;48.858;9.206;2023-04-21T00:06:20;97801.19;;;4.39;100.00
11314;BME280;5712;48.858;9.206;2023-04-21T00:08:47;97803.75;;;4.41;100.00
11314;BME280;5712;48.858;9.206;2023-04-21T00:11:15;97806.28;;;4.42;100.00
11314;BME280;5712;48.858;9.206;2023-04-21T00:13:42;97803.81;;;4.39;100.00
11314;BME280;5712;48.858;9.206;2023-04-21T00:16:09;97805.72;;;4.36;100.00
11314;BME280;5712;48.858;9.206;2023-04-21T00:18:35;97805.03;;;4.32;100.00
11314;BME280;5712;48.858;9.206;2023-04-21T00:21:02;97799.94;;;4.29;100.00
11314;BME280;5712;48.858;9.206;2023-04-21T00:23:29;97796.56;;;4.27;100.00
11314;BME280;5712;48.858;9.206;2023-04-21T00:25:55;97797.50;;;4.26;100.00
11314;BME280;5712;48.858;9.206;2023-04-21T00:28:23;97794.81;;;4.28;100.00
11314;BME280;5712;48.858;9.206;2023-04-21T00:30:49;97805.34;;;4.26;100.00
11314;BME280;5712;48.858;9.206;2023-04-21T00:33:18;97788.72;;;4.27;100.00
11314;BME280;5712;48.858;9.206;2023-04-21T00:35:45;97796.56;;;4.27;100.00
11314;BME280;5712;48.858;9.206;2023-04-21T00:38:11;97795.81;;;4.25;100.00
11314;BME280;5712;48.858;9.206;2023-04-21T00:40:38;97792.25;;;4.26;100.00
11314;BME280;5712;48.858;9.206;2023-04-21T00:43:05;97787.03;;;4.26;100.00
11314;BME280;5712;48.858;9.206;2023-04-21T00:45:33;97790.41;;;4.28;100.00
11314;BME280;5712;48.858;9.206;2023-04-21T00:48:00;97781.81;;;4.26;100.00
11314;BME280;5712;48.858;9.206;2023-04-21T00:50:27;97780.03;;;4.27;100.00
11314;BME280;5712;48.858;9.206;2023-04-21T00:52:54;97776.41;;;4.29;100.00
11314;BME280;5712;48.858;9.206;2023-04-21T00:55:21;97778.25;;;4.27;100.00
11314;BME280;5712;48.858;9.206;2023-04-21T00:57:49;97772.25;;;4.25;100.00
11314;BME280;5712;48.858;9.206;2023-04-21T01:00:16;97769.59;;;4.27;100.00
11314;BME280;5712;48.858;9.206;2023-04-21T01:02:44;97767.72;;;4.29;100.00
11314;BME280;5712;48.858;9.206;2023-04-21T01:05:11;97770.28;;;4.30;100.00
11314;BME280;5712;48.858;9.206;2023-04-21T01:07:38;97768.56;;;4.29;100.00
11314;BME280;5712;48.858;9.206;2023-04-21T01:10:06;97773.66;;;4.32;100.00
11314;BME280;5712;48.858;9.206;2023-04-21T01:12:41;97769.34;;;4.31;100.00
11314;BME280;5712;48.858;9.206;2023-04-21T01:15:09;97771.97;;;4.31;100.00
11314;BME280;5712;48.858;9.206;2023-04-21T01:17:35;97764.13;;;4.31;100.00
11314;BME280;5712;48.858;9.206;2023-04-21T01:20:07;97761.50;;;4.31;100.00
11314;BME280;5712;48.858;9.206;2023-04-21T01:22:36;97751.97;;;4.30;100.00
11314;BME280;5712;48.858;9.206;2023-04-21T01:25:03;97753.78;;;4.28;100.00
11314;BME280;5712;48.858;9.206;2023-04-21T01:27:31;97753.34;;;4.20;100.00
11314;BME280;5712;48.858;9.206;2023-04-21T01:29:57;97758.88;;;4.14;100.00
11314;BME280;5712;48.858;9.206;2023-04-21T01:32:26;97753.34;;;4.20;100.00
11314;BME280;5712;48.858;9.206;2023-04-21T01:34:53;97763.41;;;4.11;100.00
11314;BME280;5712;48.858;9.206;2023-04-21T01:37:23;97756.88;;;4.02;100.00
11314;BME280;5712;48.858;9.206;2023-04-21T01:39:53;97759.66;;;3.99;100.00
11314;BME280;5712;48.858;9.206;2023-04-21T01:42:21;97754.53;;;3.96;100.00
11314;BME280;5712;48.858;9.206;2023-04-21T01:44:48;97767.16;;;3.88;100.00
11314;BME280;5712;48.858;9.206;2023-04-21T01:47:15;97764.84;;;3.82;100.00
11314;BME280;5712;48.858;9.206;2023-04-21T01:49:42;97770.13;;;3.81;100.00
11314;BME280;5712;48.858;9.206;2023-04-21T01:52:08;97770.44;;;3.75;100.00
11314;BME280;5712;48.858;9.206;2023-04-21T01:54:35;97772.97;;;3.76;100.00
11314;BME280;5712;48.858;9.206;2023-04-21T01:57:03;97768.56;;;3.77;100.00
11314;BME280;5712;48.858;9.206;2023-04-21T01:59:30;97773.75;;;3.78;100.00
11314;BME280;5712;48.858;9.206;2023-04-21T02:01:57;97774.78;;;3.74;100.00
11314;BME280;5712;48.858;9.206;2023-04-21T02:04:23;97777.56;;;3.71;100.00
11314;BME280;5712;48.858;9.206;2023-04-21T02:06:50;97776.22;;;3.63;100.00
11314;BME280;5712;48.858;9.206;2023-04-21T02:09:16;97770.44;;;3.56;100.00
11314;BME280;5712;48.858;9.206;2023-04-21T02:11:43;97778.38;;;3.55;100.00
11314;BME280;5712;48.858;9.206;2023-04-21T02:14:11;97775.81;;;3.53;100.00
11314;BME280;5712;48.858;9.206;2023-04-21T02:16:37;97775.81;;;3.53;100.00
11314;BME280;5712;48.858;9.206;2023-04-21T02:19:04;97774.25;;;3.49;100.00
11314;BME280;5712;48.858;9.206;2023-04-21T02:21:31;97767.63;;;3.42;100.00
11314;BME280;5712;48.858;9.206;2023-04-21T02:23:57;97762.56;;;3.39;100.00
11314;BME280;5712;48.858;9.206;2023-04-21T02:26:24;97763.41;;;3.40;100.00
11314;BME280;5712;48.858;9.206;2023-04-21T02:28:50;97772.72;;;3.45;100.00
11314;BME280;5712;48.858;9.206;2023-04-21T02:31:18;97767.63;;;3.42;100.00
11314;BME280;5712;48.858;9.206;2023-04-21T02:33:45;97764.38;;;3.37;100.00
11314;BME280;5712;48.858;9.206;2023-04-21T02:36:11;97758.41;;;3.35;100.00
11314;BME280;5712;48.858;9.206;2023-04-21T02:38:38;97756.00;;;3.31;100.00
11314;BME280;5712;48.858;9.206;2023-04-21T02:41:04;97759.16;;;3.37;100.00
11314;BME280;5712;48.858;9.206;2023-04-21T02:43:31;97756.66;;;3.36;100.00
11314;BME280;5712;48.858;9.206;2023-04-21T02:45:57;97770.59;;;3.35;100.00
11314;BME280;5712;48.858;9.206;2023-04-21T02:48:25;97767.91;;;3.36;100.00
11314;BME280;5712;48.858;9.206;2023-04-21T02:50:52;97769.59;;;3.37;100.00
11314;BME280;5712;48.858;9.206;2023-04-21T02:53:19;97771.34;;;3.38;100.00
11314;BME280;5712;48.858;9.206;2023-04-21T02:55:45;97769.59;;;3.37;100.00
11314;BME280;5712;48.858;9.206;2023-04-21T02:58:12;97770.59;;;3.35;100.00
11314;BME280;5712;48.858;9.206;2023-04-21T03:00:39;97779.34;;;3.34;100.00
11314;BME280;5712;48.858;9.206;2023-04-21T03:03:05;97776.63;;;3.37;100.00
11314;BME280;5712;48.858;9.206;2023-04-21T03:05:33;97775.75;;;3.36;100.00
11314;BME280;5712;48.858;9.206;2023-04-21T03:07:59;97776.84;;;3.32;100.00
11314;BME280;5712;48.858;9.206;2023-04-21T03:10:26;97762.84;;;3.33;100.00
11314;BME280;5712;48.858;9.206;2023-04-21T03:12:52;97771.47;;;3.35;100.00
11314;BME280;5712;48.858;9.206;2023-04-21T03:15:20;97761.00;;;3.35;100.00
11314;BME280;5712;48.858;9.206;2023-04-21T03:17:47;97762.84;;;3.33;100.00
11314;BME280;5712;48.858;9.206;2023-04-21T03:20:13;97752.41;;;3.33;100.00
11314;BME280;5712;48.858;9.206;2023-04-21T03:22:41;97755.78;;;3.35;100.00
11314;BME280;5712;48.858;9.206;2023-04-21T03:25:08;97740.97;;;3.36;100.00
11314;BME280;5712;48.858;9.206;2023-04-21T03:27:35;97738.91;;;3.42;100.00
11314;BME280;5712;48.858;9.206;2023-04-21T03:30:02;97736.88;;;3.30;100.00
11314;BME280;5712;48.858;9.206;2023-04-21T03:32:29;97726.41;;;3.30;100.00
11314;BME280;5712;48.858;9.206;2023-04-21T03:34:55;97737.84;;;3.28;100.00
11314;BME280;5712;48.858;9.206;2023-04-21T03:37:22;97744.34;;;3.19;100.00
11314;BME280;5712;48.858;9.206;2023-04-21T03:39:50;97752.47;;;3.13;100.00
11314;BME280;5712;48.858;9.206;2023-04-21T03:42:16;97746.63;;;3.08;100.00
11314;BME280;5712;48.858;9.206;2023-04-21T03:44:43;97750.06;;;3.09;100.00
11314;BME280;5712;48.858;9.206;2023-04-21T03:47:09;97757.34;;;3.02;100.00
11314;BME280;5712;48.858;9.206;2023-04-21T03:49:36;97752.13;;;3.02;100.00
11314;BME280;5712;48.858;9.206;2023-04-21T03:52:02;97747.78;;;3.01;100.00
11314;BME280;5712;48.858;9.206;2023-04-21T03:54:29;97750.28;;;3.04;100.00
11314;BME280;5712;48.858;9.206;2023-04-21T03:56:57;97751.97;;;3.05;100.00
11314;BME280;5712;48.858;9.206;2023-04-21T03:59:23;97759.03;;;3.03;100.00
11314;BME280;5712;48.858;9.206;2023-04-21T04:01:50;97763.34;;;3.04;100.00
11314;BME280;5712;48.858;9.206;2023-04-21T04:04:17;97765.78;;;3.07;100.00
11314;BME280;5712;48.858;9.206;2023-04-21T04:06:43;97766.44;;;3.12;100.00
11314;BME280;5712;48.858;9.206;2023-04-21T04:09:10;97763.69;;;3.15;100.00
11314;BME280;5712;48.858;9.206;2023-04-21T04:11:36;97763.63;;;3.17;100.00
11314;BME280;5712;48.858;9.206;2023-04-21T04:14:04;97761.84;;;3.17;100.00
11314;BME280;5712;48.858;9.206;2023-04-21T04:16:32;97759.25;;;3.17;100.00
11314;BME280;5712;48.858;9.206;2023-04-21T04:18:59;97760.72;;;3.23;100.00
11314;BME280;5712;48.858;9.206;2023-04-21T04:21:25;97751.13;;;3.23;100.00
11314;BME280;5712;48.858;9.206;2023-04-21T04:23:52;97749.28;;;3.25;100.00
11314;BME280;5712;48.858;9.206;2023-04-21T04:26:19;97756.28;;;3.25;100.00
11314;BME280;5712;48.858;9.206;2023-04-21T04:28:46;97750.16;;;3.26;100.00
11314;BME280;5712;48.858;9.206;2023-04-21T04:31:14;97756.06;;;3.29;100.00
11314;BME280;5712;48.858;9.206;2023-04-21T04:33:41;97760.25;;;3.33;100.00
11314;BME280;5712;48.858;9.206;2023-04-21T04:36:07;97756.72;;;3.34;100.00
11314;BME280;5712;48.858;9.206;2023-04-21T04:38:34;97767.91;;;3.36;100.00
11314;BME280;5712;48.858;9.206;2023-04-21T04:41:02;97762.69;;;3.36;100.00
11314;BME280;5712;48.858;9.206;2023-04-21T04:43:29;97753.25;;;3.34;100.00
11314;BME280;5712;48.858;9.206;2023-04-21T04:45:57;97746.19;;;3.36;100.00
11314;BME280;5712;48.858;9.206;2023-04-21T04:48:25;97757.34;;;3.39;100.00
11314;BME280;5712;48.858;9.206;2023-04-21T04:50:52;97756.91;;;3.48;100.00
11314;BME280;5712;48.858;9.206;2023-04-21T04:53:18;97770.59;;;3.53;100.00
11314;BME280;5712;48.858;9.206;2023-04-21T04:55:45;97774.69;;;3.59;100.00
11314;BME280;5712;48.858;9.206;2023-04-21T04:58:12;97772.63;;;3.65;100.00
11314;BME280;5712;48.858;9.206;2023-04-21T05:00:38;97773.09;;;3.73;100.00
11314;BME280;5712;48.858;9.206;2023-04-21T05:03:05;97773.75;;;3.78;100.00
11314;BME280;5712;48.858;9.206;2023-04-21T05:05:33;97770.00;;;3.84;100.00
11314;BME280;5712;48.858;9.206;2023-04-21T05:07:59;97775.75;;;3.90;100.00
11314;BME280;5712;48.858;9.206;2023-04-21T05:10:26;97774.06;;;3.89;100.00
11314;BME280;5712;48.858;9.206;2023-04-21T05:12:52;97777.44;;;3.91;100.00
11314;BME280;5712;48.858;9.206;2023-04-21T05:15:19;97782.38;;;3.97;100.00
11314;BME280;5712;48.858;9.206;2023-04-21T05:17:46;97789.00;;;4.04;100.00
11314;BME280;5712;48.858;9.206;2023-04-21T05:20:14;97796.47;;;4.12;100.00
11314;BME280;5712;48.858;9.206;2023-04-21T05:22:42;97794.50;;;4.17;100.00
11314;BME280;5712;48.858;9.206;2023-04-21T05:25:09;97801.97;;;4.24;100.00
11314;BME280;5712;48.858;9.206;2023-04-21T05:27:36;97802.66;;;4.28;100.00
11314;BME280;5712;48.858;9.206;2023-04-21T05:30:03;97799.81;;;4.32;100.00
11314;BME280;5712;48.858;9.206;2023-04-21T05:32:30;97795.50;;;4.31;100.00
11314;BME280;5712;48.858;9.206;2023-04-21T05:34:56;97802.44;;;4.32;100.00
11314;BME280;5712;48.858;9.206;2023-04-21T05:37:23;97802.34;;;4.34;100.00
11314;BME280;5712;48.858;9.206;2023-04-21T05:39:51;97797.25;;;4.31;100.00
11314;BME280;5712;48.858;9.206;2023-04-21T05:42:18;97803.03;;;4.37;100.00
11314;BME280;5712;48.858;9.206;2023-04-21T05:44:46;97801.06;;;4.42;100.00
11314;BME280;5712;48.858;9.206;2023-04-21T05:47:12;97808.72;;;4.45;100.00
11314;BME280;5712;48.858;9.206;2023-04-21T05:49:39;97812.97;;;4.48;100.00
11314;BME280;5712;48.858;9.206;2023-04-21T05:52:08;97809.19;;;4.53;100.00
11314;BME280;5712;48.858;9.206;2023-04-21T05:54:34;97793.34;;;4.56;100.00
11314;BME280;5712;48.858;9.206;2023-04-21T05:57:02;97801.81;;;4.61;100.00
11314;BME280;5712;48.858;9.206;2023-04-21T05:59:29;97793.78;;;4.64;100.00
11314;BME280;5712;48.858;9.206;2023-04-21T06:01:56;97787.63;;;4.65;100.00
11314;BME280;5712;48.858;9.206;2023-04-21T06:04:22;97784.94;;;4.67;100.00
11314;BME280;5712;48.858;9.206;2023-04-21T06:06:49;97783.00;;;4.70;100.00
11314;BME280;5712;48.858;9.206;2023-04-21T06:09:15;97773.00;;;4.78;100.00
11314;BME280;5712;48.858;9.206;2023-04-21T06:11:42;97780.97;;;4.92;100.00
11314;BME280;5712;48.858;9.206;2023-04-21T06:14:10;97777.47;;;5.09;100.00
11314;BME280;5712;48.858;9.206;2023-04-21T06:16:36;97779.97;;;5.27;100.00
11314;BME280;5712;48.858;9.206;2023-04-21T06:19:03;97767.22;;;5.37;100.00
11314;BME280;5712;48.858;9.206;2023-04-21T06:21:29;97757.91;;;5.47;100.00
11314;BME280;5712;48.858;9.206;2023-04-21T06:23:57;97758.44;;;5.53;100.00
11314;BME280;5712;48.858;9.206;2023-04-21T06:26:23;97750.97;;;5.61;100.00
11314;BME280;5712;48.858;9.206;2023-04-21T06:28:50;97756.22;;;5.61;100.00
11314;BME280;5712;48.858;9.206;2023-04-21T06:31:18;97761.31;;;5.64;100.00
11314;BME280;5712;48.858;9.206;2023-04-21T06:33:44;97783.19;;;5.79;100.00
11314;BME280;5712;48.858;9.206;2023-04-21T06:36:11;97778.31;;;5.88;100.00
11314;BME280;5712;48.858;9.206;2023-04-21T06:38:37;97774.81;;;6.03;100.00
11314;BME280;5712;48.858;9.206;2023-04-21T06:41:05;97777.41;;;6.19;100.00
11314;BME280;5712;48.858;9.206;2023-04-21T06:43:32;97778.72;;;6.41;100.00
11314;BME280;5712;48.858;9.206;2023-04-21T06:45:58;97777.84;;;6.70;100.00
11314;BME280;5712;48.858;9.206;2023-04-21T06:48:26;97777.78;;;6.86;100.00
11314;BME280;5712;48.858;9.206;2023-04-21T06:50:54;97795.72;;;6.93;100.00
11314;BME280;5712;48.858;9.206;2023-04-21T06:53:20;97792.34;;;7.05;100.00
11314;BME280;5712;48.858;9.206;2023-04-21T06:55:47;97774.53;;;7.10;100.00
11314;BME280;5712;48.858;9.206;2023-04-21T06:58:14;97773.59;;;7.11;100.00
11314;BME280;5712;48.858;9.206;2023-04-21T07:00:41;97780.69;;;7.09;100.00
11314;BME280;5712;48.858;9.206;2023-04-21T07:03:07;97788.41;;;7.12;100.00
11314;BME280;5712;48.858;9.206;2023-04-21T07:05:35;97779.00;;;7.08;100.00
11314;BME280;5712;48.858;9.206;2023-04-21T07:08:02;97783.59;;;7.05;100.00
11314;BME280;5712;48.858;9.206;2023-04-21T07:10:28;97775.16;;;7.00;100.00
11314;BME280;5712;48.858;9.206;2023-04-21T07:12:56;97779.59;;;6.99;100.00
11314;BME280;5712;48.858;9.206;2023-04-21T07:15:22;97781.34;;;6.99;100.00
11314;BME280;5712;48.858;9.206;2023-04-21T07:17:49;97789.88;;;7.02;100.00
11314;BME280;5712;48.858;9.206;2023-04-21T07:20:15;97779.50;;;7.15;100.00
11314;BME280;5712;48.858;9.206;2023-04-21T07:22:44;97780.50;;;7.26;100.00
11314;BME280;5712;48.858;9.206;2023-04-21T07:25:10;97778.44;;;7.31;100.00
11314;BME280;5712;48.858;9.206;2023-04-21T07:27:37;97772.25;;;7.32;100.00
11314;BME280;5712;48.858;9.206;2023-04-21T07:30:04;97767.25;;;7.41;100.00
11314;BME280;5712;48.858;9.206;2023-04-21T07:32:31;97762.09;;;7.54;100.00
11314;BME280;5712;48.858;9.206;2023-04-21T07:34:59;97766.38;;;7.69;100.00
11314;BME280;5712;48.858;9.206;2023-04-21T07:37:26;97772.28;;;7.72;100.00
11314;BME280;5712;48.858;9.206;2023-04-21T07:39:53;97762.63;;;7.73;100.00
11314;BME280;5712;48.858;9.206;2023-04-21T07:42:20;97763.19;;;7.78;100.00
11314;BME280;5712;48.858;9.206;2023-04-21T07:44:46;97752.81;;;7.89;100.00
11314;BME280;5712;48.858;9.206;2023-04-21T07:47:13;97755.56;;;8.00;100.00
11314;BME280;5712;48.858;9.206;2023-04-21T07:49:40;97759.50;;;8.07;100.00
11314;BME280;5712;48.858;9.206;2023-04-21T07:52:06;97763.63;;;8.11;100.00
11314;BME280;5712;48.858;9.206;2023-04-21T07:54:33;97765.31;;;8.12;100.00
11314;BME280;5712;48.858;9.206;2023-04-21T07:57:01;97761.25;;;8.20;100.00
11314;BME280;5712;48.858;9.206;2023-04-21T07:59:28;97760.13;;;8.37;100.00
11314;BME280;5712;48.858;9.206;2023-04-21T08:01:54;97765.13;;;8.54;100.00
11314;BME280;5712;48.858;9.206;2023-04-21T08:04:21;97754.63;;;8.66;100.00
11314;BME280;5712;48.858;9.206;2023-04-21T08:06:47;97755.41;;;8.81;100.00
11314;BME280;5712;48.858;9.206;2023-04-21T08:09:14;97748.63;;;8.77;100.00
11314;BME280;5712;48.858;9.206;2023-04-21T08:11:40;97756.44;;;8.91;100.00
11314;BME280;5712;48.858;9.206;2023-04-21T08:14:08;97754.75;;;9.02;100.00
11314;BME280;5712;48.858;9.206;2023-04-21T08:16:36;97747.59;;;9.17;100.00
11314;BME280;5712;48.858;9.206;2023-04-21T08:19:02;97748.84;;;9.24;100.00
11314;BME280;5712;48.858;9.206;2023-04-21T08:21:29;97747.75;;;9.39;100.00
11314;BME280;5712;48.858;9.206;2023-04-21T08:23:55;97742.44;;;9.64;100.00
11314;BME280;5712;48.858;9.206;2023-04-21T08:26:22;97748.56;;;9.88;100.00
11314;BME280;5712;48.858;9.206;2023-04-21T08:28:49;97753.06;;;9.98;100.00
11314;BME280;5712;48.858;9.206;2023-04-21T08:31:18;97758.34;;;10.11;100.00
11314;BME280;5712;48.858;9.206;2023-04-21T08:33:44;97750.25;;;10.25;100.00
11314;BME280;5712;48.858;9.206;2023-04-21T08:36:11;97741.31;;;10.38;100.00
11314;BME280;5712;48.858;9.206;2023-04-21T08:38:38;97737.25;;;10.45;100.00
11314;BME280;5712;48.858;9.206;2023-04-21T08:41:04;97737.53;;;10.64;100.00
11314;BME280;5712;48.858;9.206;2023-04-21T08:43:32;97748.66;;;10.80;100.00
11314;BME280;5712;48.858;9.206;2023-04-21T08:45:58;97754.44;;;10.96;100.00
11314;BME280;5712;48.858;9.206;2023-04-21T08:48:27;97752.19;;;11.14;100.00
11314;BME280;5712;48.858;9.206;2023-04-21T08:50:55;97732.25;;;11.21;100.00
11314;BME280;5712;48.858;9.206;2023-04-21T08:53:22;97738.03;;;11.37;100.00
11314;BME280;5712;48.858;9.206;2023-04-21T08:55:50;97738.16;;;11.46;100.00
11314;BME280;5712;48.858;9.206;2023-04-21T08:58:18;97735.00;;;11.63;100.00
11314;BME280;5712;48.858;9.206;2023-04-21T09:00:46;97743.09;;;11.62;100.00
11314;BME280;5712;48.858;9.206;2023-04-21T09:03:13;97747.16;;;11.55;100.00
11314;BME280;5712;48.858;9.206;2023-04-21T09:05:56;97739.94;;;11.57;100.00
11314;BME280;5712;48.858;9.206;2023-04-21T09:08:23;97731.53;;;11.74;100.00
11314;BME280;5712;48.858;9.206;2023-04-21T09:10:51;97728.13;;;11.72;100.00
11314;BME280;5712;48.858;9.206;2023-04-21T09:13:18;97737.06;;;11.60;100.00
11314;BME280;5712;48.858;9.206;2023-04-21T09:15:48;97749.56;;;11.80;100.00
11314;BME280;5712;48.858;9.206;2023-04-21T09:18:16;97735.47;;;11.79;100.00
11314;BME280;5712;48.858;9.206;2023-04-21T09:20:44;97741.72;;;11.89;100.00
11314;BME280;5712;48.858;9.206;2023-04-21T09:23:13;97736.53;;;11.99;100.00
11314;BME280;5712;48.858;9.206;2023-04-21T09:25:40;97725.25;;;12.17;100.00
11314;BME280;5712;48.858;9.206;2023-04-21T09:28:13;97716.97;;;12.22;100.00
11314;BME280;5712;48.858;9.206;2023-04-21T09:30:41;97713.00;;;12.16;100.00
11314;BME280;5712;48.858;9.206;2023-04-21T09:33:14;97715.75;;;12.15;100.00
11314;BME280;5712;48.858;9.206;2023-04-21T09:35:42;97718.63;;;12.23;100.00
11314;BME280;5712;48.858;9.206;2023-04-21T09:38:09;97710.47;;;12.15;100.00
11314;BME280;5712;48.858;9.206;2023-04-21T09:40:38;97702.34;;;11.96;100.00
11314;BME280;5712;48.858;9.206;2023-04-21T09:43:05;97702.34;;;11.96;100.00
11314;BME280;5712;48.858;9.206;2023-04-21T09:45:31;97693.91;;;11.91;97.71
11314;BME280;5712;48.858;9.206;2023-04-21T09:47:59;97697.06;;;11.85;98.28
11314;BME280;5712;48.858;9.206;2023-04-21T09:50:27;97702.63;;;11.82;100.00
11314;BME280;5712;48.858;9.206;2023-04-21T09:52:55;97723.38;;;12.08;100.00
11314;BME280;5712;48.858;9.206;2023-04-21T09:55:27;97730.13;;;12.33;100.00
11314;BME280;5712;48.858;9.206;2023-04-21T09:57:57;97722.16;;;12.44;100.00
11314;BME280;5712;48.858;9.206;2023-04-21T10:00:25;97722.94;;;12.76;100.00
11314;BME280;5712;48.858;9.206;2023-04-21T10:02:53;97716.09;;;12.94;100.00
11314;BME280;5712;48.858;9.206;2023-04-21T10:05:21;97712.16;;;13.09;100.00
11314;BME280;5712;48.858;9.206;2023-04-21T10:07:48;97700.31;;;13.13;100.00
11314;BME280;5712;48.858;9.206;2023-04-21T10:10:19;97688.53;;;13.06;100.00
11314;BME280;5712;48.858;9.206;2023-04-21T10:12:47;97681.84;;;13.02;100.00
11314;BME280;5712;48.858;9.206;2023-04-21T10:15:32;97683.50;;;13.03;100.00
11314;BME280;5712;48.858;9.206;2023-04-21T10:18:16;97673.44;;;12.97;99.13
11314;BME280;5712;48.858;9.206;2023-04-21T10:20:53;97663.50;;;12.99;95.51
11314;BME280;5712;48.858;9.206;2023-04-21T10:23:32;97663.84;;;13.05;93.70
11314;BME280;5712;48.858;9.206;2023-04-21T10:26:07;97664.16;;;13.21;94.03
11314;BME280;5712;48.858;9.206;2023-04-21T10:28:42;97660.69;;;13.21;95.40
11314;BME280;5712;48.858;9.206;2023-04-21T10:31:28;97653.50;;;13.42;93.72
11314;BME280;5712;48.858;9.206;2023-04-21T10:34:18;97626.16;;;13.51;87.46
11314;BME280;5712;48.858;9.206;2023-04-21T10:37:07;97655.50;;;13.59;93.45
11314;BME280;5712;48.858;9.206;2023-04-21T10:39:36;97635.41;;;13.66;88.46
11314;BME280;5712;48.858;9.206;2023-04-21T10:42:22;97663.94;;;13.83;97.78
11314;BME280;5712;48.858;9.206;2023-04-21T10:45:00;97658.63;;;13.83;97.49
11314;BME280;5712;48.858;9.206;2023-04-21T10:47:35;97661.38;;;13.62;94.17
11314;BME280;5712;48.858;9.206;2023-04-21T10:50:20;97652.06;;;13.68;92.35
11314;BME280;5712;48.858;9.206;2023-04-21T10:52:52;97639.34;;;13.81;88.72
11314;BME280;5712;48.858;9.206;2023-04-21T10:55:20;97643.56;;;13.83;90.33
11314;BME280;5712;48.858;9.206;2023-04-21T10:57:47;97667.88;;;13.98;95.71
11314;BME280;5712;48.858;9.206;2023-04-21T11:00:17;97641.34;;;14.07;91.40
11314;BME280;5712;48.858;9.206;2023-04-21T11:02:52;97663.63;;;14.35;97.32
11314;BME280;5712;48.858;9.206;2023-04-21T11:05:19;97640.25;;;14.38;92.49
11314;BME280;5712;48.858;9.206;2023-04-21T11:08:01;97625.13;;;14.20;87.13
11314;BME280;5712;48.858;9.206;2023-04-21T11:10:41;97642.75;;;14.30;90.63
11314;BME280;5712;48.858;9.206;2023-04-21T11:13:08;97610.03;;;14.20;84.34
11314;BME280;5712;48.858;9.206;2023-04-21T11:15:35;97613.78;;;14.18;84.70
11314;BME280;5712;48.858;9.206;2023-04-21T11:18:04;97634.91;;;14.48;89.56
11314;BME280;5712;48.858;9.206;2023-04-21T11:20:31;97645.16;;;14.89;93.07
11314;BME280;5712;48.858;9.206;2023-04-21T11:22:58;97636.34;;;15.25;90.76
11314;BME280;5712;48.858;9.206;2023-04-21T11:25:24;97620.25;;;15.63;89.14
11314;BME280;5712;48.858;9.206;2023-04-21T11:27:54;97601.47;;;15.82;84.10
11314;BME280;5712;48.858;9.206;2023-04-21T11:30:29;97594.00;;;15.85;80.65
11314;BME280;5712;48.858;9.206;2023-04-21T11:32:56;97604.13;;;15.82;82.13
11314;BME280;5712;48.858;9.206;2023-04-21T11:35:24;97616.88;;;15.61;84.21
11314;BME280;5712;48.858;9.206;2023-04-21T11:37:51;97606.28;;;15.51;80.94
11314;BME280;5712;48.858;9.206;2023-04-21T11:40:17;97620.59;;;15.68;84.31
11314;BME280;5712;48.858;9.206;2023-04-21T11:42:44;97594.59;;;15.79;81.10
11314;BME280;5712;48.858;9.206;2023-04-21T11:45:15;97617.31;;;16.01;86.11
11314;BME280;5712;48.858;9.206;2023-04-21T11:47:42;97605.72;;;16.09;83.81
11314;BME280;5712;48.858;9.206;2023-04-21T11:50:09;97594.06;;;16.10;82.43
11314;BME280;5712;48.858;9.206;2023-04-21T11:52:37;97592.69;;;16.24;82.47
11314;BME280;5712;48.858;9.206;2023-04-21T11:55:09;97583.44;;;16.36;83.51
11314;BME280;5712;48.858;9.206;2023-04-21T11:57:38;97592.28;;;16.54;85.16
11314;BME280;5712;48.858;9.206;2023-04-21T12:00:08;97585.19;;;16.62;83.81
11314;BME280;5712;48.858;9.206;2023-04-21T12:02:36;97581.38;;;16.65;83.04
11314;BME280;5712;48.858;9.206;2023-04-21T12:05:04;97586.84;;;16.63;81.75
11314;BME280;5712;48.858;9.206;2023-04-21T12:07:31;97577.84;;;16.64;80.61
11314;BME280;5712;48.858;9.206;2023-04-21T12:10:00;97584.56;;;16.68;80.08
11314;BME280;5712;48.858;9.206;2023-04-21T12:12:27;97539.03;;;16.44;70.73
11314;BME280;5712;48.858;9.206;2023-04-21T12:14:53;97572.78;;;16.53;77.66
11314;BME280;5712;48.858;9.206;2023-04-21T12:17:20;97548.47;;;16.56;74.26
11314;BME280;5712;48.858;9.206;2023-04-21T12:19:47;97560.53;;;16.68;77.02
11314;BME280;5712;48.858;9.206;2023-04-21T12:22:15;97551.78;;;16.58;75.76
11314;BME280;5712;48.858;9.206;2023-04-21T12:24:42;97579.41;;;16.75;81.30
11314;BME280;5712;48.858;9.206;2023-04-21T12:27:11;97556.81;;;16.87;75.70
11314;BME280;5712;48.858;9.206;2023-04-21T12:29:38;97574.81;;;16.85;77.46
11314;BME280;5712;48.858;9.206;2023-04-21T12:32:05;97531.56;;;16.73;70.74
11314;BME280;5712;48.858;9.206;2023-04-21T12:34:32;97557.72;;;16.70;74.70
11314;BME280;5712;48.858;9.206;2023-04-21T12:36:58;97522.03;;;16.71;70.08
11314;BME280;5712;48.858;9.206;2023-04-21T12:39:25;97533.72;;;16.70;71.97
11314;BME280;5712;48.858;9.206;2023-04-21T12:41:51;97551.91;;;16.74;77.49
11314;BME280;5712;48.858;9.206;2023-04-21T12:44:19;97552.00;;;16.90;79.32
11314;BME280;5712;48.858;9.206;2023-04-21T12:46:46;97515.16;;;16.94;71.71
11314;BME280;5712;48.858;9.206;2023-04-21T12:49:14;97501.97;;;16.92;70.40
11314;BME280;5712;48.858;9.206;2023-04-21T12:51:41;97518.78;;;16.93;73.24
11314;BME280;5712;48.858;9.206;2023-04-21T12:54:08;97521.69;;;16.99;74.00
11314;BME280;5712;48.858;9.206;2023-04-21T12:56:34;97512.00;;;16.98;71.71
11314;BME280;5712;48.858;9.206;2023-04-21T12:59:03;97527.09;;;17.15;75.13
11314;BME280;5712;48.858;9.206;2023-04-21T13:01:31;97518.44;;;17.21;74.81
11314;BME280;5712;48.858;9.206;2023-04-21T13:03:58;97459.34;;;17.16;64.34
11314;BME280;5712;48.858;9.206;2023-04-21T13:06:25;97514.59;;;17.24;74.05
11314;BME280;5712;48.858;9.206;2023-04-21T13:08:52;97520.47;;;17.35;74.29
11314;BME280;5712;48.858;9.206;2023-04-21T13:11:18;97493.00;;;17.43;69.96
11314;BME280;5712;48.858;9.206;2023-04-21T13:13:45;97520.88;;;17.48;75.27